createdAt,value
2018-11-04T00:00:32.989Z,0.00
2018-11-04T00:01:33.002Z,0.00
2018-11-04T00:02:32.966Z,0.00
2018-11-04T00:03:32.953Z,0.00
2018-11-04T00:04:32.945Z,0.00
2018-11-04T00:05:32.934Z,0.00
2018-11-04T00:06:32.924Z,0.00
2018-11-04T00:07:32.916Z,0.00
2018-11-04T00:08:32.909Z,0.00
2018-11-04T00:09:32.897Z,0.00
2018-11-04T00:10:32.888Z,0.00
2018-11-04T00:11:32.879Z,0.00
2018-11-04T00:12:32.871Z,0.00
2018-11-04T00:13:32.859Z,0.00
2018-11-04T00:14:32.851Z,0.00
2018-11-04T00:15:32.844Z,0.00
2018-11-04T00:16:32.835Z,0.00
2018-11-04T00:17:32.823Z,0.00
2018-11-04T00:18:32.813Z,0.00
2018-11-04T00:19:32.805Z,0.00
2018-11-04T00:20:32.797Z,0.00
2018-11-04T00:21:32.785Z,0.00
2018-11-04T00:22:32.777Z,0.00
2018-11-04T00:23:32.767Z,0.00
2018-11-04T00:24:32.759Z,0.00
2018-11-04T00:25:32.750Z,0.00
2018-11-04T00:26:32.739Z,0.00
2018-11-04T00:27:32.730Z,0.00
2018-11-04T00:28:32.722Z,0.00
2018-11-04T00:29:32.744Z,0.00
2018-11-04T00:30:32.702Z,0.00
2018-11-04T00:31:32.694Z,0.00
2018-11-04T00:32:32.684Z,0.00
2018-11-04T00:33:32.674Z,0.00
2018-11-04T00:34:32.669Z,0.00
2018-11-04T00:35:32.655Z,0.00
2018-11-04T00:36:32.646Z,0.00
2018-11-04T00:37:32.635Z,0.00
2018-11-04T00:38:32.628Z,0.00
2018-11-04T00:39:32.618Z,0.00
2018-11-04T00:40:32.610Z,0.00
2018-11-04T00:41:32.601Z,0.00
2018-11-04T00:42:32.590Z,0.00
2018-11-04T00:43:32.582Z,0.00
2018-11-04T00:44:32.574Z,0.00
2018-11-04T00:45:32.616Z,0.00
2018-11-04T00:46:32.552Z,0.00
2018-11-04T00:47:32.544Z,0.00
2018-11-04T00:48:32.554Z,0.00
2018-11-04T00:49:32.525Z,0.00
2018-11-04T00:50:32.516Z,0.00
2018-11-04T00:51:32.508Z,0.00
2018-11-04T00:52:32.498Z,0.00
2018-11-04T00:53:32.488Z,0.00
2018-11-04T00:54:32.480Z,0.00
2018-11-04T00:55:32.470Z,0.00
2018-11-04T00:56:32.461Z,0.00
2018-11-04T00:57:32.452Z,0.00
2018-11-04T00:58:32.442Z,0.00
2018-11-04T00:59:32.431Z,0.00
2018-11-04T01:00:32.426Z,0.00
2018-11-04T01:01:32.468Z,0.00
2018-11-04T01:02:32.405Z,0.00
2018-11-04T01:03:32.395Z,0.00
2018-11-04T01:04:32.386Z,0.00
2018-11-04T01:05:32.376Z,0.00
2018-11-04T01:06:32.370Z,0.00
2018-11-04T01:07:32.360Z,0.00
2018-11-04T01:08:32.349Z,0.00
2018-11-04T01:09:32.340Z,0.00
2018-11-04T01:10:32.331Z,0.00
2018-11-04T01:11:32.322Z,0.00
2018-11-04T01:12:32.313Z,0.00
2018-11-04T01:13:32.302Z,0.00
2018-11-04T01:14:32.293Z,0.00
2018-11-04T01:15:32.282Z,0.00
2018-11-04T01:16:32.275Z,0.00
2018-11-04T01:17:32.264Z,0.00
2018-11-04T01:18:32.256Z,0.00
2018-11-04T01:19:32.251Z,0.00
2018-11-04T01:20:32.238Z,0.00
2018-11-04T01:21:32.228Z,0.00
2018-11-04T01:22:32.218Z,0.00
2018-11-04T01:23:32.209Z,0.00
2018-11-04T01:24:32.311Z,0.00
2018-11-04T01:25:32.191Z,0.00
2018-11-04T01:26:32.182Z,0.00
2018-11-04T01:27:32.173Z,0.00
2018-11-04T01:28:32.163Z,0.00
2018-11-04T01:29:32.154Z,0.00
2018-11-04T01:30:32.145Z,0.00
2018-11-04T01:31:32.135Z,0.00
2018-11-04T01:32:32.125Z,0.00
2018-11-04T01:33:32.122Z,0.00
2018-11-04T01:34:32.107Z,0.00
2018-11-04T01:35:32.098Z,0.00
2018-11-04T01:36:32.090Z,0.00
2018-11-04T01:37:32.080Z,0.00
2018-11-04T01:38:32.069Z,0.00
2018-11-04T01:39:32.060Z,0.00
2018-11-04T01:40:32.052Z,0.00
2018-11-04T01:41:32.042Z,0.00
2018-11-04T01:42:32.032Z,0.00
2018-11-04T01:43:32.025Z,0.00
2018-11-04T01:44:32.014Z,0.00
2018-11-04T01:45:32.005Z,0.00
2018-11-04T01:46:31.995Z,0.00
2018-11-04T01:47:31.987Z,0.00
2018-11-04T01:48:31.983Z,0.00
2018-11-04T01:49:31.967Z,0.00
2018-11-04T01:50:31.963Z,0.00
2018-11-04T01:51:31.949Z,0.00
2018-11-04T01:52:31.940Z,0.00
2018-11-04T01:53:31.931Z,0.00
2018-11-04T01:54:31.920Z,0.00
2018-11-04T01:55:31.912Z,0.00
2018-11-04T01:56:31.903Z,0.00
2018-11-04T01:57:31.892Z,0.00
2018-11-04T01:58:31.883Z,0.00
2018-11-04T01:59:31.874Z,0.00
2018-11-04T02:00:31.866Z,0.00
2018-11-04T02:01:31.856Z,0.00
2018-11-04T02:02:31.845Z,0.00
2018-11-04T02:03:31.840Z,0.00
2018-11-04T02:04:31.827Z,0.00
2018-11-04T02:05:31.817Z,0.00
2018-11-04T02:06:31.809Z,0.00
2018-11-04T02:07:31.799Z,0.00
2018-11-04T02:08:31.790Z,0.00
2018-11-04T02:09:31.780Z,0.00
2018-11-04T02:10:31.772Z,0.00
2018-11-04T02:11:31.763Z,0.00
2018-11-04T02:12:31.754Z,0.00
2018-11-04T02:13:31.746Z,0.00
2018-11-04T02:14:31.733Z,0.00
2018-11-04T02:15:31.724Z,0.00
2018-11-04T02:16:31.717Z,0.00
2018-11-04T02:17:31.704Z,0.00
2018-11-04T02:18:31.696Z,0.00
2018-11-04T02:19:31.687Z,0.00
2018-11-04T02:20:31.678Z,0.00
2018-11-04T02:21:31.669Z,0.00
2018-11-04T02:22:31.660Z,0.00
2018-11-04T02:23:31.651Z,0.00
2018-11-04T02:24:31.641Z,0.00
2018-11-04T02:25:31.630Z,0.00
2018-11-04T02:26:31.622Z,0.00
2018-11-04T02:27:31.611Z,0.00
2018-11-04T02:28:31.604Z,0.00
2018-11-04T02:29:31.594Z,0.00
2018-11-04T02:30:31.584Z,0.00
2018-11-04T02:31:31.574Z,0.00
2018-11-04T02:32:31.566Z,0.00
2018-11-04T02:33:31.555Z,0.00
2018-11-04T02:34:31.547Z,0.00
2018-11-04T02:35:31.537Z,0.00
2018-11-04T02:36:31.529Z,0.00
2018-11-04T02:37:31.518Z,0.00
2018-11-04T02:38:31.510Z,0.00
2018-11-04T02:39:31.501Z,0.00
2018-11-04T02:40:31.491Z,0.00
2018-11-04T02:41:31.480Z,0.00
2018-11-04T02:42:31.470Z,0.00
2018-11-04T02:43:31.466Z,0.00
2018-11-04T02:44:31.458Z,0.00
2018-11-04T02:45:31.443Z,0.00
2018-11-04T02:46:31.435Z,0.00
2018-11-04T02:47:31.425Z,0.00
2018-11-04T02:48:31.416Z,0.00
2018-11-04T02:49:31.417Z,0.00
2018-11-04T02:50:31.395Z,0.00
2018-11-04T02:51:31.388Z,0.00
2018-11-04T02:52:31.377Z,0.00
2018-11-04T02:53:31.377Z,0.00
2018-11-04T02:54:31.359Z,0.00
2018-11-04T02:55:31.349Z,0.00
2018-11-04T02:56:31.340Z,0.00
2018-11-04T02:57:31.333Z,0.00
2018-11-04T02:58:31.321Z,0.00
2018-11-04T02:59:31.312Z,0.00
2018-11-04T03:00:31.303Z,0.00
2018-11-04T03:01:31.292Z,0.00
2018-11-04T03:02:31.283Z,0.00
2018-11-04T03:03:31.276Z,0.00
2018-11-04T03:04:31.265Z,0.00
2018-11-04T03:05:31.255Z,0.00
2018-11-04T03:06:31.245Z,0.00
2018-11-04T03:07:31.236Z,0.00
2018-11-04T03:08:31.226Z,0.00
2018-11-04T03:09:31.217Z,0.00
2018-11-04T03:10:31.208Z,0.00
2018-11-04T03:11:31.199Z,0.00
2018-11-04T03:12:31.190Z,0.00
2018-11-04T03:13:31.184Z,0.00
2018-11-04T03:14:31.170Z,0.00
2018-11-04T03:15:31.162Z,0.00
2018-11-04T03:16:31.152Z,0.00
2018-11-04T03:17:31.142Z,0.00
2018-11-04T03:18:31.133Z,0.00
2018-11-04T03:19:31.123Z,0.00
2018-11-04T03:20:31.114Z,0.00
2018-11-04T03:21:31.104Z,0.00
2018-11-04T03:22:31.096Z,0.00
2018-11-04T03:23:31.105Z,0.00
2018-11-04T03:24:31.084Z,0.00
2018-11-04T03:25:31.072Z,0.00
2018-11-04T03:26:31.057Z,0.00
2018-11-04T03:27:31.048Z,0.00
2018-11-04T03:28:31.041Z,0.00
2018-11-04T03:29:31.033Z,0.00
2018-11-04T03:30:31.020Z,0.00
2018-11-04T03:31:31.012Z,0.00
2018-11-04T03:32:31.002Z,0.00
2018-11-04T03:33:30.992Z,0.00
2018-11-04T03:34:30.983Z,0.00
2018-11-04T03:35:30.974Z,0.00
2018-11-04T03:36:30.964Z,0.00
2018-11-04T03:37:30.954Z,0.00
2018-11-04T03:38:30.945Z,0.00
2018-11-04T03:39:30.939Z,0.00
2018-11-04T03:40:30.926Z,0.00
2018-11-04T03:41:30.916Z,0.00
2018-11-04T03:42:30.907Z,0.00
2018-11-04T03:43:30.899Z,0.00
2018-11-04T03:44:30.889Z,0.00
2018-11-04T03:45:30.880Z,0.00
2018-11-04T03:46:30.872Z,0.00
2018-11-04T03:47:30.861Z,0.00
2018-11-04T03:48:30.851Z,0.00
2018-11-04T03:49:30.840Z,0.00
2018-11-04T03:50:30.832Z,0.00
2018-11-04T03:51:30.823Z,0.00
2018-11-04T03:52:30.814Z,0.00
2018-11-04T03:53:30.803Z,0.00
2018-11-04T03:54:30.801Z,0.00
2018-11-04T03:55:30.786Z,0.00
2018-11-04T03:56:30.783Z,0.00
2018-11-04T03:57:30.767Z,0.00
2018-11-04T03:58:30.759Z,0.00
2018-11-04T03:59:30.748Z,0.00
2018-11-04T04:00:30.738Z,0.00
2018-11-04T04:01:30.728Z,0.00
2018-11-04T04:02:30.719Z,0.00
2018-11-04T04:03:30.710Z,0.00
2018-11-04T04:04:30.701Z,0.00
2018-11-04T04:05:30.696Z,0.00
2018-11-04T04:06:30.685Z,0.00
2018-11-04T04:07:30.672Z,0.00
2018-11-04T04:08:30.663Z,0.00
2018-11-04T04:09:30.654Z,0.00
2018-11-04T04:10:30.645Z,0.00
2018-11-04T04:11:30.635Z,0.00
2018-11-04T04:12:30.623Z,0.00
2018-11-04T04:13:30.615Z,0.00
2018-11-04T04:14:30.605Z,0.00
2018-11-04T04:15:30.596Z,0.00
2018-11-04T04:16:30.587Z,0.00
2018-11-04T04:17:30.577Z,0.00
2018-11-04T04:18:30.567Z,0.00
2018-11-04T04:19:30.560Z,0.00
2018-11-04T04:20:30.549Z,0.00
2018-11-04T04:21:30.538Z,0.00
2018-11-04T04:22:30.529Z,0.00
2018-11-04T04:23:30.521Z,0.00
2018-11-04T04:24:30.511Z,0.00
2018-11-04T04:25:30.503Z,0.00
2018-11-04T04:26:30.491Z,0.00
2018-11-04T04:27:30.484Z,0.00
2018-11-04T04:28:30.475Z,0.00
2018-11-04T04:29:30.464Z,0.00
2018-11-04T04:30:30.454Z,0.00
2018-11-04T04:31:30.447Z,0.00
2018-11-04T04:32:30.435Z,0.00
2018-11-04T04:33:30.425Z,0.00
2018-11-04T04:34:30.416Z,0.00
2018-11-04T04:35:30.410Z,0.00
2018-11-04T04:36:30.401Z,0.00
2018-11-04T04:37:30.389Z,0.00
2018-11-04T04:38:30.379Z,0.00
2018-11-04T04:39:30.369Z,0.00
2018-11-04T04:40:30.359Z,0.00
2018-11-04T04:41:30.358Z,0.00
2018-11-04T04:42:30.345Z,0.00
2018-11-04T04:43:30.336Z,0.00
2018-11-04T04:44:30.325Z,0.00
2018-11-04T04:45:30.315Z,0.00
2018-11-04T04:46:30.306Z,0.00
2018-11-04T04:47:30.296Z,0.00
2018-11-04T04:48:30.288Z,0.00
2018-11-04T04:49:30.280Z,0.00
2018-11-04T04:50:30.272Z,0.00
2018-11-04T04:51:30.259Z,0.00
2018-11-04T04:52:30.250Z,0.00
2018-11-04T04:53:30.240Z,0.00
2018-11-04T04:54:30.230Z,0.00
2018-11-04T04:55:30.222Z,0.00
2018-11-04T04:56:30.213Z,0.00
2018-11-04T04:57:30.205Z,0.00
2018-11-04T04:58:30.196Z,0.00
2018-11-04T04:59:30.184Z,0.00
2018-11-04T05:00:30.174Z,0.00
2018-11-04T05:01:30.164Z,0.00
2018-11-04T05:02:30.154Z,0.00
2018-11-04T05:03:30.157Z,0.00
2018-11-04T05:04:30.140Z,0.00
2018-11-04T05:05:30.127Z,0.00
2018-11-04T05:06:30.118Z,0.00
2018-11-04T05:07:30.108Z,0.00
2018-11-04T05:08:30.102Z,0.00
2018-11-04T05:09:30.089Z,0.00
2018-11-04T05:10:30.079Z,0.00
2018-11-04T05:11:30.072Z,0.00
2018-11-04T05:12:30.062Z,0.00
2018-11-04T05:13:30.052Z,0.00
2018-11-04T05:14:30.043Z,0.00
2018-11-04T05:15:30.033Z,0.00
2018-11-04T05:16:30.026Z,0.00
2018-11-04T05:17:30.013Z,0.00
2018-11-04T05:18:30.004Z,0.00
2018-11-04T05:19:29.996Z,0.00
2018-11-04T05:20:29.990Z,0.00
2018-11-04T05:21:29.976Z,0.00
2018-11-04T05:22:29.967Z,0.00
2018-11-04T05:23:29.959Z,0.00
2018-11-04T05:24:29.950Z,0.00
2018-11-04T05:25:29.938Z,0.00
2018-11-04T05:26:29.929Z,0.00
2018-11-04T05:27:29.921Z,0.00
2018-11-04T05:28:29.913Z,0.00
2018-11-04T05:29:29.901Z,0.00
2018-11-04T05:30:29.893Z,0.00
2018-11-04T05:31:29.884Z,0.00
2018-11-04T05:32:29.873Z,0.00
2018-11-04T05:33:29.865Z,0.00
2018-11-04T05:34:29.856Z,0.00
2018-11-04T05:35:29.845Z,0.00
2018-11-04T05:36:29.837Z,0.00
2018-11-04T05:37:29.826Z,0.00
2018-11-04T05:38:29.898Z,0.00
2018-11-04T05:39:29.810Z,0.00
2018-11-04T05:40:29.799Z,0.00
2018-11-04T05:41:29.791Z,0.00
2018-11-04T05:42:29.782Z,0.00
2018-11-04T05:43:29.773Z,0.00
2018-11-04T05:44:29.764Z,0.00
2018-11-04T05:45:29.753Z,0.00
2018-11-04T05:46:29.743Z,0.00
2018-11-04T05:47:29.736Z,0.00
2018-11-04T05:48:29.727Z,0.00
2018-11-04T05:49:29.716Z,0.00
2018-11-04T05:50:29.709Z,0.00
2018-11-04T05:51:29.698Z,0.00
2018-11-04T05:52:29.690Z,0.00
2018-11-04T05:53:29.680Z,0.00
2018-11-04T05:54:29.671Z,0.00
2018-11-04T05:55:29.661Z,0.00
2018-11-04T05:56:29.654Z,0.00
2018-11-04T05:57:29.643Z,4.00
2018-11-04T05:58:29.634Z,4.00
2018-11-04T05:59:29.626Z,0.00
2018-11-04T06:00:29.616Z,4.00
2018-11-04T06:01:29.606Z,4.00
2018-11-04T06:02:29.599Z,4.00
2018-11-04T06:03:29.588Z,4.00
2018-11-04T06:04:29.581Z,8.00
2018-11-04T06:05:29.570Z,8.00
2018-11-04T06:06:29.560Z,12.00
2018-11-04T06:07:29.551Z,8.00
2018-11-04T06:08:29.542Z,12.00
2018-11-04T06:09:29.534Z,16.00
2018-11-04T06:10:29.525Z,16.00
2018-11-04T06:11:29.516Z,20.00
2018-11-04T06:12:29.507Z,24.00
2018-11-04T06:13:29.497Z,28.00
2018-11-04T06:14:29.490Z,36.00
2018-11-04T06:15:29.479Z,36.00
2018-11-04T06:16:29.471Z,44.00
2018-11-04T06:17:29.460Z,48.00
2018-11-04T06:18:29.454Z,60.00
2018-11-04T06:19:29.489Z,64.00
2018-11-04T06:20:29.435Z,72.00
2018-11-04T06:21:29.426Z,84.00
2018-11-04T06:22:29.415Z,92.00
2018-11-04T06:23:29.406Z,104.00
2018-11-04T06:24:29.397Z,112.00
2018-11-04T06:25:29.389Z,132.00
2018-11-04T06:26:29.380Z,144.00
2018-11-04T06:27:29.371Z,156.00
2018-11-04T06:28:29.363Z,168.00
2018-11-04T06:29:29.353Z,180.00
2018-11-04T06:30:29.345Z,196.00
2018-11-04T06:31:29.336Z,208.00
2018-11-04T06:32:29.328Z,228.00
2018-11-04T06:33:29.317Z,244.00
2018-11-04T06:34:29.327Z,260.00
2018-11-04T06:35:29.302Z,276.00
2018-11-04T06:36:29.292Z,296.00
2018-11-04T06:37:29.282Z,316.00
2018-11-04T06:38:29.275Z,336.00
2018-11-04T06:39:29.268Z,356.00
2018-11-04T06:40:29.258Z,380.00
2018-11-04T06:41:29.249Z,400.00
2018-11-04T06:42:29.239Z,420.00
2018-11-04T06:43:29.231Z,440.00
2018-11-04T06:44:29.224Z,460.00
2018-11-04T06:45:29.213Z,480.00
2018-11-04T06:46:29.205Z,500.00
2018-11-04T06:47:29.229Z,516.00
2018-11-04T06:48:29.188Z,532.00
2018-11-04T06:49:29.179Z,552.00
2018-11-04T06:50:29.172Z,564.00
2018-11-04T06:51:29.162Z,572.00
2018-11-04T06:52:29.155Z,576.00
2018-11-04T06:53:29.145Z,584.00
2018-11-04T06:54:29.140Z,604.00
2018-11-04T06:55:29.132Z,632.00
2018-11-04T06:56:29.119Z,680.00
2018-11-04T06:57:29.110Z,728.00
2018-11-04T06:58:29.101Z,804.00
2018-11-04T06:59:29.093Z,876.00
2018-11-04T07:00:29.089Z,880.00
2018-11-04T07:01:29.077Z,888.00
2018-11-04T07:02:29.069Z,924.00
2018-11-04T07:03:29.061Z,960.00
2018-11-04T07:04:29.052Z,1036.00
2018-11-04T07:05:29.043Z,1108.00
2018-11-04T07:06:29.035Z,1176.00
2018-11-04T07:07:29.027Z,1188.00
2018-11-04T07:08:29.019Z,1144.00
2018-11-04T07:09:29.009Z,1120.00
2018-11-04T07:10:29.001Z,1128.00
2018-11-04T07:11:28.993Z,1120.00
2018-11-04T07:12:28.989Z,1124.00
2018-11-04T07:13:28.985Z,1116.00
2018-11-04T07:14:28.969Z,1124.00
2018-11-04T07:15:28.965Z,1188.00
2018-11-04T07:16:28.953Z,1288.00
2018-11-04T07:17:28.943Z,1388.00
2018-11-04T07:18:28.937Z,1448.00
2018-11-04T07:19:28.929Z,1536.00
2018-11-04T07:20:28.920Z,1608.00
2018-11-04T07:21:28.912Z,1652.00
2018-11-04T07:22:28.903Z,1684.00
2018-11-04T07:23:28.897Z,1684.00
2018-11-04T07:24:28.888Z,1708.00
2018-11-04T07:25:28.898Z,1768.00
2018-11-04T07:26:28.872Z,1784.00
2018-11-04T07:27:28.863Z,1748.00
2018-11-04T07:28:28.856Z,1712.00
2018-11-04T07:29:28.849Z,1692.00
2018-11-04T07:30:28.840Z,1708.00
2018-11-04T07:31:28.832Z,1768.00
2018-11-04T07:32:28.825Z,1904.00
2018-11-04T07:33:28.831Z,2028.00
2018-11-04T07:34:28.808Z,2072.00
2018-11-04T07:35:28.803Z,2096.00
2018-11-04T07:36:28.793Z,2156.00
2018-11-04T07:37:28.787Z,2172.00
2018-11-04T07:38:28.779Z,2188.00
2018-11-04T07:39:28.772Z,2152.00
2018-11-04T07:40:28.763Z,2160.00
2018-11-04T07:41:28.758Z,2212.00
2018-11-04T07:42:28.751Z,2300.00
2018-11-04T07:43:28.796Z,2388.00
2018-11-04T07:44:28.908Z,2408.00
2018-11-04T07:45:28.724Z,2332.00
2018-11-04T07:46:28.718Z,2216.00
2018-11-04T07:47:28.710Z,2192.00
2018-11-04T07:48:28.702Z,2300.00
2018-11-04T07:49:28.697Z,2332.00
2018-11-04T07:50:28.729Z,2296.00
2018-11-04T07:51:28.714Z,2348.00
2018-11-04T07:52:28.673Z,2460.00
2018-11-04T07:53:28.666Z,2460.00
2018-11-04T07:54:28.657Z,2380.00
2018-11-04T07:55:28.651Z,2344.00
2018-11-04T07:56:28.644Z,2488.00
2018-11-04T07:57:28.635Z,2600.00
2018-11-04T07:58:28.630Z,2604.00
2018-11-04T07:59:28.621Z,2556.00
2018-11-04T08:00:28.615Z,2576.00
2018-11-04T08:01:28.607Z,2664.00
2018-11-04T08:02:28.600Z,2628.00
2018-11-04T08:03:28.620Z,2516.00
2018-11-04T08:04:28.586Z,2488.00
2018-11-04T08:05:28.578Z,2624.00
2018-11-04T08:06:28.571Z,2704.00
2018-11-04T08:07:28.565Z,2560.00
2018-11-04T08:08:28.557Z,2396.00
2018-11-04T08:09:28.550Z,2200.00
2018-11-04T08:10:28.542Z,2268.00
2018-11-04T08:11:28.558Z,2576.00
2018-11-04T08:12:28.531Z,2816.00
2018-11-04T08:13:28.564Z,2652.00
2018-11-04T08:14:28.514Z,2640.00
2018-11-04T08:15:28.508Z,3020.00
2018-11-04T08:16:28.501Z,3376.00
2018-11-04T08:17:28.494Z,3396.00
2018-11-04T08:18:28.486Z,3180.00
2018-11-04T08:19:28.481Z,3020.00
2018-11-04T08:20:28.475Z,2996.00
2018-11-04T08:21:28.615Z,2936.00
2018-11-04T08:22:28.461Z,2684.00
2018-11-04T08:23:28.455Z,2416.00
2018-11-04T08:24:28.446Z,2372.00
2018-11-04T08:25:28.439Z,2444.00
2018-11-04T08:26:28.432Z,2488.00
2018-11-04T08:27:28.459Z,2644.00
2018-11-04T08:28:28.419Z,2872.00
2018-11-04T08:29:28.412Z,3040.00
2018-11-04T08:30:28.405Z,3296.00
2018-11-04T08:31:28.398Z,3228.00
2018-11-04T08:32:28.397Z,2820.00
2018-11-04T08:33:28.385Z,2664.00
2018-11-04T08:34:28.378Z,2748.00
2018-11-04T08:35:28.372Z,2668.00
2018-11-04T08:36:28.368Z,2496.00
2018-11-04T08:37:28.361Z,2264.00
2018-11-04T08:38:28.353Z,2164.00
2018-11-04T08:39:28.346Z,2304.00
2018-11-04T08:40:28.454Z,2504.00
2018-11-04T08:41:28.331Z,2748.00
2018-11-04T08:42:28.325Z,2944.00
2018-11-04T08:43:28.318Z,2820.00
2018-11-04T08:44:28.314Z,2556.00
2018-11-04T08:45:28.305Z,2624.00
2018-11-04T08:46:28.299Z,2740.00
2018-11-04T08:47:28.292Z,2852.00
2018-11-04T08:48:28.286Z,3012.00
2018-11-04T08:49:28.278Z,3200.00
2018-11-04T08:50:28.273Z,3452.00
2018-11-04T08:51:28.266Z,3808.00
2018-11-04T08:52:28.298Z,3944.00
2018-11-04T08:53:28.253Z,3628.00
2018-11-04T08:54:28.246Z,3244.00
2018-11-04T08:55:28.240Z,3364.00
2018-11-04T08:56:28.236Z,3892.00
2018-11-04T08:57:28.226Z,4404.00
2018-11-04T08:58:28.221Z,4752.00
2018-11-04T08:59:28.216Z,4948.00
2018-11-04T09:00:28.208Z,4920.00
2018-11-04T09:01:28.201Z,4560.00
2018-11-04T09:02:28.199Z,4104.00
2018-11-04T09:03:28.190Z,3976.00
2018-11-04T09:04:28.184Z,4384.00
2018-11-04T09:05:28.178Z,4924.00
2018-11-04T09:06:28.223Z,5584.00
2018-11-04T09:07:28.165Z,5820.00
2018-11-04T09:08:28.184Z,5552.00
2018-11-04T09:09:28.152Z,5128.00
2018-11-04T09:10:28.147Z,5128.00
2018-11-04T09:11:28.140Z,5324.00
2018-11-04T09:12:28.135Z,5532.00
2018-11-04T09:13:28.129Z,5720.00
2018-11-04T09:14:28.122Z,6180.00
2018-11-04T09:15:28.116Z,6664.00
2018-11-04T09:16:28.111Z,6388.00
2018-11-04T09:17:28.105Z,5748.00
2018-11-04T09:18:28.100Z,5992.00
2018-11-04T09:19:28.093Z,6904.00
2018-11-04T09:20:28.144Z,7236.00
2018-11-04T09:21:28.089Z,6768.00
2018-11-04T09:22:28.111Z,6384.00
2018-11-04T09:23:28.089Z,6536.00
2018-11-04T09:24:28.077Z,7248.00
2018-11-04T09:25:28.057Z,7720.00
2018-11-04T09:26:28.054Z,7772.00
2018-11-04T09:27:28.050Z,7476.00
2018-11-04T09:28:28.043Z,7044.00
2018-11-04T09:29:28.038Z,6636.00
2018-11-04T09:30:28.033Z,6360.00
2018-11-04T09:31:28.027Z,6504.00
2018-11-04T09:32:28.022Z,6784.00
2018-11-04T09:33:28.017Z,6972.00
2018-11-04T09:34:28.036Z,6688.00
2018-11-04T09:35:28.217Z,6112.00
2018-11-04T09:36:28.073Z,5864.00
2018-11-04T09:37:27.999Z,5944.00
2018-11-04T09:38:27.990Z,6152.00
2018-11-04T09:39:27.984Z,6284.00
2018-11-04T09:40:27.997Z,6340.00
2018-11-04T09:41:27.973Z,6260.00
2018-11-04T09:42:27.970Z,6140.00
2018-11-04T09:43:27.965Z,6128.00
2018-11-04T09:44:27.960Z,6096.00
2018-11-04T09:45:28.008Z,5952.00
2018-11-04T09:46:27.948Z,6020.00
2018-11-04T09:47:27.944Z,6260.00
2018-11-04T09:48:27.957Z,6224.00
2018-11-04T09:49:27.933Z,6024.00
2018-11-04T09:50:27.927Z,5948.00
2018-11-04T09:51:27.924Z,5820.00
2018-11-04T09:52:27.917Z,5636.00
2018-11-04T09:53:27.912Z,5792.00
2018-11-04T09:54:27.907Z,5892.00
2018-11-04T09:55:27.902Z,5356.00
2018-11-04T09:56:27.968Z,4760.00
2018-11-04T09:57:27.895Z,4508.00
2018-11-04T09:58:27.905Z,4316.00
2018-11-04T09:59:27.883Z,4200.00
2018-11-04T10:00:27.877Z,4252.00
2018-11-04T10:01:27.873Z,4400.00
2018-11-04T10:02:27.871Z,4424.00
2018-11-04T10:03:27.862Z,4152.00
2018-11-04T10:04:27.857Z,3696.00
2018-11-04T10:05:27.850Z,3868.00
2018-11-04T10:06:27.845Z,4404.00
2018-11-04T10:07:27.841Z,4812.00
2018-11-04T10:08:27.835Z,5312.00
2018-11-04T10:09:27.830Z,5820.00
2018-11-04T10:10:27.826Z,5788.00
2018-11-04T10:11:27.821Z,5692.00
2018-11-04T10:12:27.816Z,5768.00
2018-11-04T10:13:27.974Z,5732.00
2018-11-04T10:14:27.805Z,5212.00
2018-11-04T10:15:27.801Z,4912.00
2018-11-04T10:16:27.912Z,4952.00
2018-11-04T10:17:27.789Z,5480.00
2018-11-04T10:18:27.784Z,5996.00
2018-11-04T10:19:27.812Z,6232.00
2018-11-04T10:20:28.096Z,6328.00
2018-11-04T10:21:27.769Z,6680.00
2018-11-04T10:22:27.764Z,7020.00
2018-11-04T10:23:27.762Z,6968.00
2018-11-04T10:24:27.755Z,6540.00
2018-11-04T10:25:27.750Z,6052.00
2018-11-04T10:26:27.744Z,6088.00
2018-11-04T10:27:27.740Z,6320.00
2018-11-04T10:28:27.737Z,6668.00
2018-11-04T10:29:27.729Z,7136.00
2018-11-04T10:30:27.800Z,7280.00
2018-11-04T10:31:27.721Z,6948.00
2018-11-04T10:32:27.716Z,6736.00
2018-11-04T10:33:27.710Z,6672.00
2018-11-04T10:34:27.706Z,6804.00
2018-11-04T10:35:27.701Z,7896.00
2018-11-04T10:36:27.698Z,8992.00
2018-11-04T10:37:27.844Z,8692.00
2018-11-04T10:38:27.690Z,7888.00
2018-11-04T10:39:27.684Z,7448.00
2018-11-04T10:40:27.678Z,7448.00
2018-11-04T10:41:27.673Z,7520.00
2018-11-04T10:42:27.773Z,7592.00
2018-11-04T10:43:27.672Z,7736.00
2018-11-04T10:44:27.659Z,8068.00
2018-11-04T10:45:27.656Z,8636.00
2018-11-04T10:46:27.654Z,9060.00
2018-11-04T10:47:27.647Z,9212.00
2018-11-04T10:48:27.643Z,8804.00
2018-11-04T10:49:27.708Z,8604.00
2018-11-04T10:50:27.633Z,8656.00
2018-11-04T10:51:27.630Z,8192.00
2018-11-04T10:52:27.626Z,7648.00
2018-11-04T10:53:27.620Z,7428.00
2018-11-04T10:54:27.617Z,7304.00
2018-11-04T10:55:27.620Z,7064.00
2018-11-04T10:56:27.609Z,6816.00
2018-11-04T10:57:27.605Z,6516.00
2018-11-04T10:58:27.600Z,6256.00
2018-11-04T10:59:27.596Z,6112.00
2018-11-04T11:00:27.596Z,6248.00
2018-11-04T11:01:27.587Z,6680.00
2018-11-04T11:02:27.581Z,7128.00
2018-11-04T11:03:27.580Z,7296.00
2018-11-04T11:04:27.637Z,7500.00
2018-11-04T11:05:27.568Z,7556.00
2018-11-04T11:06:27.573Z,7084.00
2018-11-04T11:07:27.561Z,6500.00
2018-11-04T11:08:27.558Z,6172.00
2018-11-04T11:09:27.553Z,6184.00
2018-11-04T11:10:27.551Z,6372.00
2018-11-04T11:11:27.546Z,6524.00
2018-11-04T11:12:27.542Z,6908.00
2018-11-04T11:13:27.536Z,7260.00
2018-11-04T11:14:27.532Z,7236.00
2018-11-04T11:15:27.530Z,6660.00
2018-11-04T11:16:27.525Z,6264.00
2018-11-04T11:17:27.519Z,6372.00
2018-11-04T11:18:27.515Z,6660.00
2018-11-04T11:19:27.519Z,6896.00
2018-11-04T11:20:27.508Z,7164.00
2018-11-04T11:21:27.502Z,7912.00
2018-11-04T11:22:27.579Z,8664.00
2018-11-04T11:23:27.494Z,8728.00
2018-11-04T11:24:27.506Z,8536.00
2018-11-04T11:25:27.507Z,7880.00
2018-11-04T11:26:27.482Z,7236.00
2018-11-04T11:27:27.477Z,7172.00
2018-11-04T11:28:27.475Z,6940.00
2018-11-04T11:29:27.470Z,6824.00
2018-11-04T11:30:27.464Z,6452.00
2018-11-04T11:31:27.466Z,6468.00
2018-11-04T11:32:27.457Z,6632.00
2018-11-04T11:33:27.451Z,7196.00
2018-11-04T11:34:27.448Z,7984.00
2018-11-04T11:35:27.445Z,8396.00
2018-11-04T11:36:27.442Z,8220.00
2018-11-04T11:37:27.518Z,8112.00
2018-11-04T11:38:27.451Z,7836.00
2018-11-04T11:39:27.430Z,7432.00
2018-11-04T11:40:27.424Z,7256.00
2018-11-04T11:41:27.420Z,7496.00
2018-11-04T11:42:27.416Z,7864.00
2018-11-04T11:43:27.413Z,8056.00
2018-11-04T11:44:27.408Z,8140.00
2018-11-04T11:45:27.403Z,8000.00
2018-11-04T11:46:27.400Z,7304.00
2018-11-04T11:47:27.396Z,6984.00
2018-11-04T11:48:27.393Z,6916.00
2018-11-04T11:49:27.391Z,6852.00
2018-11-04T11:50:27.383Z,6508.00
2018-11-04T11:51:27.430Z,6276.00
2018-11-04T11:52:27.459Z,6404.00
2018-11-04T11:53:27.371Z,6796.00
2018-11-04T11:54:27.366Z,7192.00
2018-11-04T11:55:27.362Z,7304.00
2018-11-04T11:56:27.359Z,7116.00
2018-11-04T11:57:27.354Z,6824.00
2018-11-04T11:58:27.369Z,6492.00
2018-11-04T11:59:27.460Z,6368.00
2018-11-04T12:00:27.342Z,6424.00
2018-11-04T12:01:27.342Z,6376.00
2018-11-04T12:02:27.335Z,6276.00
2018-11-04T12:03:27.331Z,6272.00
2018-11-04T12:04:27.327Z,6192.00
2018-11-04T12:05:27.322Z,6004.00
2018-11-04T12:06:27.318Z,5796.00
2018-11-04T12:07:27.316Z,5764.00
2018-11-04T12:08:27.310Z,5736.00
2018-11-04T12:09:27.307Z,5904.00
2018-11-04T12:10:27.302Z,6196.00
2018-11-04T12:11:27.297Z,6152.00
2018-11-04T12:12:27.296Z,6156.00
2018-11-04T12:13:27.408Z,6296.00
2018-11-04T12:14:27.285Z,6216.00
2018-11-04T12:15:27.286Z,6032.00
2018-11-04T12:16:27.276Z,5876.00
2018-11-04T12:17:27.270Z,5648.00
2018-11-04T12:18:27.267Z,5812.00
2018-11-04T12:19:27.293Z,6424.00
2018-11-04T12:20:27.307Z,6872.00
2018-11-04T12:21:27.261Z,7152.00
2018-11-04T12:22:27.253Z,7556.00
2018-11-04T12:23:27.264Z,7408.00
2018-11-04T12:24:27.243Z,6984.00
2018-11-04T12:25:27.239Z,6860.00
2018-11-04T12:26:27.234Z,7012.00
2018-11-04T12:27:27.231Z,7296.00
2018-11-04T12:28:27.229Z,7588.00
2018-11-04T12:29:27.222Z,7668.00
2018-11-04T12:30:27.218Z,7544.00
2018-11-04T12:31:27.269Z,7440.00
2018-11-04T12:32:27.210Z,7208.00
2018-11-04T12:33:27.269Z,6868.00
2018-11-04T12:34:27.202Z,6488.00
2018-11-04T12:35:27.267Z,6360.00
2018-11-04T12:36:27.198Z,6672.00
2018-11-04T12:37:27.218Z,7132.00
2018-11-04T12:38:27.186Z,7388.00
2018-11-04T12:39:27.184Z,7312.00
2018-11-04T12:40:27.179Z,7264.00
2018-11-04T12:41:27.175Z,7080.00